createdAt,value
2023-05-19T00:00:15.664Z,7.80
2023-05-19T00:03:29.670Z,7.90
2023-05-19T00:06:43.385Z,7.90
2023-05-19T00:09:44.332Z,7.90
2023-05-19T00:16:05.650Z,8.10
2023-05-19T00:19:39.173Z,8.20
2023-05-19T00:23:08.765Z,8.20
2023-05-19T00:27:36.999Z,8.00
2023-05-19T00:30:04.010Z,8.00
2023-05-19T00:36:40.389Z,7.90
2023-05-19T00:40:06.497Z,7.90
2023-05-19T00:44:03.524Z,7.90
2023-05-19T00:47:49.511Z,7.90
2023-05-19T00:52:26.545Z,7.90
2023-05-19T00:54:11.717Z,7.80
2023-05-19T00:57:22.515Z,8.00
2023-05-19T01:08:05.452Z,7.70
2023-05-19T01:11:26.333Z,7.30
2023-05-19T01:14:28.549Z,7.30
2023-05-19T01:17:44.628Z,7.40
2023-05-19T01:20:49.300Z,7.50
2023-05-19T01:31:22.023Z,7.70
2023-05-19T01:34:49.098Z,7.70
2023-05-19T01:41:24.754Z,7.60
2023-05-19T01:44:43.987Z,7.50
2023-05-19T01:48:02.617Z,7.30
2023-05-19T01:51:31.676Z,7.20
2023-05-19T01:58:18.711Z,7.50
2023-05-19T02:02:07.464Z,7.50
2023-05-19T02:05:55.476Z,7.50
2023-05-19T02:09:35.140Z,7.40
2023-05-19T02:12:51.370Z,7.60
2023-05-19T02:16:00.333Z,7.60
2023-05-19T02:19:05.607Z,7.60
2023-05-19T02:22:20.813Z,7.70
2023-05-19T02:25:34.718Z,7.90
2023-05-19T02:29:04.196Z,8.00
2023-05-19T02:32:30.574Z,8.10
2023-05-19T02:35:56.054Z,8.20
2023-05-19T02:42:35.696Z,8.40
2023-05-19T02:45:56.650Z,8.50
2023-05-19T02:49:23.717Z,8.60
2023-05-19T02:55:46.233Z,8.40
2023-05-19T02:59:34.678Z,8.30
2023-05-19T03:03:01.624Z,8.20
2023-05-19T03:06:19.480Z,8.10
2023-05-19T03:09:49.774Z,7.90
2023-05-19T03:13:08.179Z,7.80
2023-05-19T03:16:52.361Z,7.90
2023-05-19T03:19:54.122Z,7.80
2023-05-19T03:23:08.201Z,7.70
2023-05-19T03:26:46.622Z,7.70
2023-05-19T03:30:28.159Z,7.70
2023-05-19T03:33:59.725Z,7.70
2023-05-19T03:37:11.485Z,7.60
2023-05-19T03:40:26.339Z,7.40
2023-05-19T03:43:34.338Z,7.40
2023-05-19T03:50:40.579Z,7.30
2023-05-19T03:54:14.980Z,7.40
2023-05-19T03:57:30.471Z,7.40
2023-05-19T04:00:45.393Z,7.60
2023-05-19T04:04:26.817Z,7.80
2023-05-19T04:07:31.579Z,7.90
2023-05-19T04:10:54.261Z,7.90
2023-05-19T04:17:23.235Z,7.80
2023-05-19T04:20:34.087Z,7.90
2023-05-19T04:27:20.917Z,8.00
2023-05-19T04:30:41.344Z,8.00
2023-05-19T04:33:43.881Z,8.20
2023-05-19T04:40:26.456Z,8.50
2023-05-19T04:43:44.164Z,8.60
2023-05-19T04:50:24.760Z,8.80
2023-05-19T04:53:42.453Z,8.90
2023-05-19T04:57:17.442Z,9.00
2023-05-19T05:00:28.638Z,9.20
2023-05-19T05:03:33.207Z,9.30
2023-05-19T05:07:23.907Z,9.50
2023-05-19T05:10:33.156Z,9.70
2023-05-19T05:17:43.059Z,10.00
2023-05-19T05:20:55.630Z,10.20
2023-05-19T05:23:57.598Z,10.50
2023-05-19T05:27:15.217Z,10.60
2023-05-19T05:30:48.379Z,10.80
2023-05-19T05:34:36.377Z,10.90
2023-05-19T05:38:01.228Z,11.10
2023-05-19T05:41:14.816Z,11.30
2023-05-19T05:44:27.293Z,11.50
2023-05-19T05:50:46.797Z,11.80
2023-05-19T05:54:06.271Z,11.90
2023-05-19T06:00:50.043Z,12.10
2023-05-19T06:04:06.054Z,12.20
2023-05-19T06:15:21.805Z,12.30
2023-05-19T06:18:29.075Z,12.90
2023-05-19T06:21:35.452Z,12.70
2023-05-19T06:28:36.592Z,12.80
2023-05-19T06:38:43.373Z,13.00
2023-05-19T06:42:02.615Z,13.50
2023-05-19T06:45:20.024Z,13.60
2023-05-19T06:49:02.964Z,13.80
2023-05-19T06:55:50.486Z,13.90
2023-05-19T06:59:12.231Z,14.30
2023-05-19T07:02:23.914Z,14.50
2023-05-19T07:05:36.788Z,14.50
2023-05-19T07:16:42.268Z,14.70
2023-05-19T07:20:36.728Z,15.10
2023-05-19T07:24:36.876Z,15.20
2023-05-19T07:28:31.032Z,15.40
2023-05-19T08:21:00.282Z,15.60
2023-05-19T08:35:02.977Z,16.60
2023-05-19T08:38:20.682Z,16.80
2023-05-19T08:42:31.101Z,16.80
2023-05-19T08:49:19.908Z,17.20
2023-05-19T08:59:26.791Z,16.90
2023-05-19T09:06:54.726Z,17.00
2023-05-19T09:23:06.185Z,17.40
2023-05-19T09:26:40.090Z,17.60
2023-05-19T09:29:41.938Z,17.70
2023-05-19T09:33:02.158Z,17.80
2023-05-19T09:36:31.982Z,17.80
2023-05-19T09:40:32.557Z,17.90
2023-05-19T09:44:09.155Z,17.90
2023-05-19T09:47:19.485Z,17.90
2023-05-19T09:50:43.345Z,17.90
2023-05-19T09:54:12.176Z,18.00
2023-05-19T10:04:33.361Z,18.50
2023-05-19T10:08:10.346Z,18.60
2023-05-19T10:11:14.523Z,18.80
2023-05-19T10:25:20.550Z,18.80
2023-05-19T10:28:43.161Z,19.30
2023-05-19T10:39:01.859Z,19.50
2023-05-19T10:42:38.285Z,19.70
2023-05-19T10:48:43.926Z,19.70
2023-05-19T10:52:43.954Z,19.30
2023-05-19T10:56:24.989Z,19.80
2023-05-19T11:00:01.684Z,19.90
2023-05-19T11:03:15.616Z,20.20
2023-05-19T11:06:39.996Z,20.10
2023-05-19T11:13:18.370Z,20.30
2023-05-19T11:17:11.485Z,20.30
2023-05-19T11:20:17.918Z,20.50
2023-05-19T11:27:27.845Z,20.10
2023-05-19T11:30:42.030Z,20.50
2023-05-19T11:33:45.489Z,20.60
2023-05-19T11:37:02.950Z,20.70
2023-05-19T11:40:23.275Z,21.20
2023-05-19T11:47:41.984Z,21.10
2023-05-19T11:51:42.208Z,21.10
2023-05-19T11:55:28.958Z,20.40
2023-05-19T11:58:43.566Z,20.40
2023-05-19T12:01:53.347Z,20.60
2023-05-19T12:05:13.500Z,20.40
2023-05-19T12:12:49.685Z,21.10
2023-05-19T12:16:05.915Z,21.00
2023-05-19T12:19:42.065Z,21.20
2023-05-19T12:23:06.953Z,21.20
2023-05-19T12:26:40.453Z,21.40
2023-05-19T12:34:29.580Z,21.40
2023-05-19T12:37:52.253Z,21.30
2023-05-19T12:50:51.359Z,21.10
2023-05-19T12:54:17.579Z,20.70
2023-05-19T13:00:37.262Z,20.90
2023-05-19T13:03:37.389Z,21.10
2023-05-19T13:06:51.915Z,21.20
2023-05-19T13:47:33.658Z,20.90
2023-05-19T13:54:19.189Z,20.80
2023-05-19T13:58:04.301Z,20.50
2023-05-19T14:01:33.041Z,19.90
2023-05-19T14:04:39.877Z,20.40
2023-05-19T14:08:05.619Z,20.80
2023-05-19T14:11:27.356Z,20.40
2023-05-19T14:17:49.427Z,20.10
2023-05-19T14:19:24.126Z,20.40
2023-05-19T14:22:47.257Z,21.10
2023-05-19T14:25:59.742Z,21.10
2023-05-19T14:29:07.204Z,21.40
2023-05-19T14:32:41.103Z,21.90
2023-05-19T14:36:31.855Z,22.20
2023-05-19T14:40:07.861Z,22.40
2023-05-19T14:43:38.586Z,22.10
2023-05-19T14:47:54.679Z,21.90
2023-05-19T14:51:53.591Z,21.70
2023-05-19T14:54:46.801Z,21.80
2023-05-19T14:57:58.009Z,21.80
2023-05-19T15:01:04.607Z,21.70
2023-05-19T15:07:46.003Z,22.00
2023-05-19T15:11:12.833Z,22.00
2023-05-19T15:14:30.622Z,21.90
2023-05-19T15:17:43.303Z,22.00
2023-05-19T15:21:01.776Z,21.60
2023-05-19T15:24:19.200Z,21.20
2023-05-19T15:27:49.537Z,20.40
2023-05-19T15:31:21.456Z,20.10
2023-05-19T15:38:03.280Z,19.40
2023-05-19T15:41:48.828Z,19.70
2023-05-19T15:48:25.716Z,20.10
2023-05-19T15:51:34.798Z,19.70
2023-05-19T15:55:10.090Z,19.60
2023-05-19T15:58:22.617Z,19.40
2023-05-19T16:04:35.906Z,19.70
2023-05-19T16:07:52.797Z,19.50
2023-05-19T16:11:04.612Z,19.60
2023-05-19T16:14:46.092Z,19.70
2023-05-19T16:18:10.521Z,19.60
2023-05-19T16:24:37.190Z,19.50
2023-05-19T16:27:42.770Z,19.10
2023-05-19T16:31:10.729Z,18.60
2023-05-19T16:37:38.060Z,18.70
2023-05-19T16:43:52.972Z,18.40
2023-05-19T16:47:11.801Z,18.00
2023-05-19T16:51:06.914Z,17.70
2023-05-19T16:54:17.885Z,17.40
2023-05-19T16:57:35.232Z,17.40
2023-05-19T17:07:07.080Z,17.20
2023-05-19T17:07:45.496Z,16.80
2023-05-19T17:11:17.891Z,16.80
2023-05-19T17:21:18.525Z,16.70
2023-05-19T17:24:38.676Z,16.70
2023-05-19T17:28:22.674Z,16.70
2023-05-19T17:32:07.540Z,16.50
2023-05-19T17:35:32.739Z,16.40
2023-05-19T17:42:06.022Z,16.30
2023-05-19T17:45:19.688Z,16.20
2023-05-19T17:48:26.810Z,16.20
2023-05-19T18:02:07.618Z,15.80
2023-05-19T18:05:26.578Z,15.80
2023-05-19T18:09:22.401Z,15.80
2023-05-19T18:12:50.692Z,15.70
2023-05-19T18:16:37.717Z,15.70
2023-05-19T18:20:13.493Z,15.60
2023-05-19T18:26:17.966Z,15.50
2023-05-19T18:27:15.725Z,15.50
2023-05-19T18:30:42.530Z,15.40
2023-05-19T18:33:59.307Z,15.30
2023-05-19T18:37:50.215Z,15.20
2023-05-19T18:41:26.368Z,15.30
2023-05-19T18:45:00.291Z,15.20
2023-05-19T18:48:05.246Z,15.10
2023-05-19T18:54:51.469Z,14.90
2023-05-19T18:58:25.591Z,14.80
2023-05-19T19:08:26.770Z,14.60
2023-05-19T19:12:20.405Z,14.50
2023-05-19T19:15:37.065Z,14.30
2023-05-19T19:18:43.548Z,14.20
2023-05-19T19:22:05.761Z,14.10
2023-05-19T19:28:39.015Z,13.90
2023-05-19T19:41:58.801Z,13.50
2023-05-19T19:45:34.470Z,13.50
2023-05-19T19:49:32.635Z,13.50
2023-05-19T19:53:25.845Z,13.40
2023-05-19T19:57:17.820Z,13.30
2023-05-19T20:34:53.699Z,13.30
2023-05-19T20:38:30.850Z,13.00
2023-05-19T20:41:54.755Z,12.90
2023-05-19T20:45:23.413Z,12.90
2023-05-19T20:48:46.220Z,12.80
2023-05-19T20:51:58.990Z,12.80
2023-05-19T20:55:45.537Z,12.80
2023-05-19T21:02:19.031Z,12.70
2023-05-19T21:05:32.794Z,12.70
2023-05-19T21:08:42.574Z,12.70
2023-05-19T21:12:48.510Z,12.60
2023-05-19T21:16:44.020Z,12.60
2023-05-19T21:33:54.316Z,12.50
2023-05-19T21:43:11.020Z,12.30
2023-05-19T21:52:44.304Z,12.20
2023-05-19T21:55:55.842Z,12.30
2023-05-19T21:59:16.320Z,12.30
2023-05-19T22:05:52.979Z,12.30
2023-05-19T22:09:03.593Z,12.20
2023-05-19T22:12:57.778Z,12.20
2023-05-19T22:16:07.800Z,12.10
2023-05-19T22:19:33.335Z,12.10
2023-05-19T22:22:47.075Z,12.10
2023-05-19T22:25:55.862Z,12.00
2023-05-19T22:29:09.414Z,12.00
2023-05-19T22:32:10.140Z,11.90
2023-05-19T22:38:26.987Z,11.90
2023-05-19T22:41:50.117Z,11.90
2023-05-19T22:44:57.774Z,11.90
2023-05-19T22:48:15.000Z,11.80
2023-05-19T22:51:02.383Z,11.80
2023-05-19T22:54:56.465Z,11.70
2023-05-19T22:58:01.983Z,11.70
2023-05-19T23:08:16.857Z,11.70
2023-05-19T23:12:14.382Z,11.70
2023-05-19T23:15:32.116Z,11.70
2023-05-19T23:18:42.804Z,11.80
2023-05-19T23:21:54.770Z,11.80
2023-05-19T23:25:40.595Z,11.90
2023-05-19T23:29:14.327Z,12.00
2023-05-19T23:32:16.029Z,12.00
2023-05-19T23:35:31.761Z,12.00
2023-05-19T23:38:53.535Z,12.20
2023-05-19T23:42:17.955Z,12.20
2023-05-19T23:48:59.540Z,12.50
2023-05-19T23:59:32.403Z,12.60
